sensor_id;sensor_type;location;lat;lon;timestamp;P1;durP1;ratioP1;P2;durP2;ratioP2
63046;SDS011;62025;39.238;9.126;2023-06-14T00:02:11;9.55;;;3.00;;
63046;SDS011;62025;39.238;9.126;2023-06-14T00:04:37;3.90;;;2.25;;
63046;SDS011;62025;39.238;9.126;2023-06-14T00:07:06;5.10;;;2.35;;
63046;SDS011;62025;39.238;9.126;2023-06-14T00:09:34;6.80;;;2.40;;
63046;SDS011;62025;39.238;9.126;2023-06-14T00:12:00;5.63;;;2.45;;
63046;SDS011;62025;39.238;9.126;2023-06-14T00:14:26;4.63;;;2.60;;
63046;SDS011;62025;39.238;9.126;2023-06-14T00:16:53;8.40;;;2.58;;
63046;SDS011;62025;39.238;9.126;2023-06-14T00:19:24;5.72;;;2.20;;
63046;SDS011;62025;39.238;9.126;2023-06-14T00:21:50;7.05;;;2.20;;
63046;SDS011;62025;39.238;9.126;2023-06-14T00:24:18;6.05;;;2.42;;
63046;SDS011;62025;39.238;9.126;2023-06-14T00:26:44;10.23;;;2.40;;
63046;SDS011;62025;39.238;9.126;2023-06-14T00:29:10;6.28;;;2.10;;
63046;SDS011;62025;39.238;9.126;2023-06-14T00:31:36;5.60;;;2.33;;
63046;SDS011;62025;39.238;9.126;2023-06-14T00:34:02;6.18;;;2.15;;
63046;SDS011;62025;39.238;9.126;2023-06-14T00:36:28;6.50;;;2.10;;
63046;SDS011;62025;39.238;9.126;2023-06-14T00:38:54;8.98;;;2.40;;
63046;SDS011;62025;39.238;9.126;2023-06-14T00:41:21;8.52;;;2.50;;
63046;SDS011;62025;39.238;9.126;2023-06-14T00:43:47;5.07;;;2.20;;
63046;SDS011;62025;39.238;9.126;2023-06-14T00:46:14;8.95;;;2.88;;
63046;SDS011;62025;39.238;9.126;2023-06-14T00:48:40;3.47;;;2.00;;
63046;SDS011;62025;39.238;9.126;2023-06-14T00:51:06;5.43;;;2.30;;
63046;SDS011;62025;39.238;9.126;2023-06-14T00:53:32;5.88;;;2.25;;
63046;SDS011;62025;39.238;9.126;2023-06-14T00:58:27;9.75;;;2.38;;
63046;SDS011;62025;39.238;9.126;2023-06-14T01:00:53;4.78;;;2.22;;
63046;SDS011;62025;39.238;9.126;2023-06-14T01:03:20;4.25;;;2.38;;
63046;SDS011;62025;39.238;9.126;2023-06-14T01:05:49;6.82;;;2.50;;
63046;SDS011;62025;39.238;9.126;2023-06-14T01:08:37;6.38;;;2.20;;
63046;SDS011;62025;39.238;9.126;2023-06-14T01:11:18;7.35;;;2.67;;
63046;SDS011;62025;39.238;9.126;2023-06-14T01:13:57;5.65;;;2.55;;
63046;SDS011;62025;39.238;9.126;2023-06-14T01:16:28;9.15;;;2.45;;
63046;SDS011;62025;39.238;9.126;2023-06-14T01:18:56;4.57;;;2.30;;
63046;SDS011;62025;39.238;9.126;2023-06-14T01:21:23;7.07;;;2.75;;
63046;SDS011;62025;39.238;9.126;2023-06-14T01:23:51;5.28;;;2.60;;
63046;SDS011;62025;39.238;9.126;2023-06-14T01:26:23;6.97;;;2.40;;
63046;SDS011;62025;39.238;9.126;2023-06-14T01:28:51;6.32;;;2.70;;
63046;SDS011;62025;39.238;9.126;2023-06-14T01:31:23;6.43;;;2.40;;
63046;SDS011;62025;39.238;9.126;2023-06-14T01:33:50;7.43;;;2.90;;
63046;SDS011;62025;39.238;9.126;2023-06-14T01:36:21;8.48;;;2.50;;
63046;SDS011;62025;39.238;9.126;2023-06-14T01:38:49;6.90;;;2.60;;
63046;SDS011;62025;39.238;9.126;2023-06-14T01:41:18;6.25;;;3.03;;
63046;SDS011;62025;39.238;9.126;2023-06-14T01:43:46;6.10;;;2.67;;
63046;SDS011;62025;39.238;9.126;2023-06-14T01:46:14;6.78;;;3.55;;
63046;SDS011;62025;39.238;9.126;2023-06-14T01:48:41;5.82;;;2.40;;
63046;SDS011;62025;39.238;9.126;2023-06-14T01:51:08;5.55;;;2.60;;
63046;SDS011;62025;39.238;9.126;2023-06-14T01:53:34;5.95;;;2.78;;
63046;SDS011;62025;39.238;9.126;2023-06-14T01:56:01;6.90;;;2.45;;
63046;SDS011;62025;39.238;9.126;2023-06-14T01:58:29;10.07;;;3.00;;
63046;SDS011;62025;39.238;9.126;2023-06-14T02:00:57;7.82;;;2.78;;
63046;SDS011;62025;39.238;9.126;2023-06-14T02:03:23;9.88;;;3.45;;
63046;SDS011;62025;39.238;9.126;2023-06-14T02:05:51;8.05;;;2.63;;
63046;SDS011;62025;39.238;9.126;2023-06-14T02:08:17;8.45;;;2.55;;
63046;SDS011;62025;39.238;9.126;2023-06-14T02:10:43;6.22;;;2.72;;
63046;SDS011;62025;39.238;9.126;2023-06-14T02:13:09;7.68;;;2.72;;
63046;SDS011;62025;39.238;9.126;2023-06-14T02:15:35;8.43;;;2.83;;
63046;SDS011;62025;39.238;9.126;2023-06-14T02:18:02;6.90;;;3.25;;
63046;SDS011;62025;39.238;9.126;2023-06-14T02:20:28;9.38;;;3.00;;
63046;SDS011;62025;39.238;9.126;2023-06-14T02:22:56;3.80;;;2.55;;
63046;SDS011;62025;39.238;9.126;2023-06-14T02:25:22;5.50;;;2.47;;
63046;SDS011;62025;39.238;9.126;2023-06-14T02:27:48;9.63;;;2.90;;
63046;SDS011;62025;39.238;9.126;2023-06-14T02:30:15;7.88;;;3.30;;
63046;SDS011;62025;39.238;9.126;2023-06-14T02:32:41;6.15;;;2.63;;
63046;SDS011;62025;39.238;9.126;2023-06-14T02:35:08;8.25;;;3.10;;
63046;SDS011;62025;39.238;9.126;2023-06-14T02:37:34;6.25;;;2.90;;
63046;SDS011;62025;39.238;9.126;2023-06-14T02:40:01;5.15;;;2.90;;
63046;SDS011;62025;39.238;9.126;2023-06-14T02:42:27;6.53;;;2.80;;
63046;SDS011;62025;39.238;9.126;2023-06-14T02:44:53;8.98;;;2.90;;
63046;SDS011;62025;39.238;9.126;2023-06-14T02:47:20;6.65;;;3.00;;
63046;SDS011;62025;39.238;9.126;2023-06-14T02:49:46;8.10;;;3.40;;
63046;SDS011;62025;39.238;9.126;2023-06-14T02:52:13;5.47;;;2.60;;
63046;SDS011;62025;39.238;9.126;2023-06-14T02:54:40;5.10;;;2.58;;
63046;SDS011;62025;39.238;9.126;2023-06-14T02:57:07;7.55;;;2.75;;
63046;SDS011;62025;39.238;9.126;2023-06-14T02:59:34;6.65;;;2.88;;
63046;SDS011;62025;39.238;9.126;2023-06-14T03:02:02;7.05;;;2.47;;
63046;SDS011;62025;39.238;9.126;2023-06-14T03:04:30;7.18;;;2.92;;
63046;SDS011;62025;39.238;9.126;2023-06-14T03:07:03;9.77;;;3.30;;
63046;SDS011;62025;39.238;9.126;2023-06-14T03:09:35;7.53;;;2.70;;
63046;SDS011;62025;39.238;9.126;2023-06-14T03:12:03;4.75;;;2.40;;
63046;SDS011;62025;39.238;9.126;2023-06-14T03:14:32;6.43;;;2.95;;
63046;SDS011;62025;39.238;9.126;2023-06-14T03:17:00;8.00;;;2.93;;
63046;SDS011;62025;39.238;9.126;2023-06-14T03:19:29;6.95;;;2.60;;
63046;SDS011;62025;39.238;9.126;2023-06-14T03:21:55;8.82;;;2.90;;
63046;SDS011;62025;39.238;9.126;2023-06-14T03:24:26;4.15;;;2.42;;
63046;SDS011;62025;39.238;9.126;2023-06-14T03:26:58;8.68;;;2.75;;
63046;SDS011;62025;39.238;9.126;2023-06-14T03:29:27;8.15;;;2.60;;
63046;SDS011;62025;39.238;9.126;2023-06-14T03:32:01;7.40;;;2.50;;
63046;SDS011;62025;39.238;9.126;2023-06-14T03:34:37;7.65;;;2.65;;
63046;SDS011;62025;39.238;9.126;2023-06-14T03:37:10;6.80;;;3.05;;
63046;SDS011;62025;39.238;9.126;2023-06-14T03:39:37;9.88;;;2.88;;
63046;SDS011;62025;39.238;9.126;2023-06-14T03:42:03;6.55;;;2.90;;
63046;SDS011;62025;39.238;9.126;2023-06-14T03:44:31;5.65;;;2.63;;
63046;SDS011;62025;39.238;9.126;2023-06-14T03:46:59;5.80;;;2.67;;
63046;SDS011;62025;39.238;9.126;2023-06-14T03:49:26;5.32;;;2.97;;
63046;SDS011;62025;39.238;9.126;2023-06-14T03:51:52;5.70;;;2.70;;
63046;SDS011;62025;39.238;9.126;2023-06-14T03:54:21;9.10;;;3.45;;
63046;SDS011;62025;39.238;9.126;2023-06-14T03:56:49;5.22;;;2.60;;
63046;SDS011;62025;39.238;9.126;2023-06-14T03:59:15;8.52;;;3.08;;
63046;SDS011;62025;39.238;9.126;2023-06-14T04:01:42;8.95;;;3.10;;
63046;SDS011;62025;39.238;9.126;2023-06-14T04:06:36;6.80;;;2.95;;
63046;SDS011;62025;39.238;9.126;2023-06-14T04:09:04;11.38;;;3.25;;
63046;SDS011;62025;39.238;9.126;2023-06-14T04:11:30;8.73;;;2.92;;
63046;SDS011;62025;39.238;9.126;2023-06-14T04:13:57;11.45;;;2.97;;
63046;SDS011;62025;39.238;9.126;2023-06-14T04:16:25;11.02;;;2.95;;
63046;SDS011;62025;39.238;9.126;2023-06-14T04:18:51;10.88;;;3.00;;
63046;SDS011;62025;39.238;9.126;2023-06-14T04:21:21;11.30;;;3.25;;
63046;SDS011;62025;39.238;9.126;2023-06-14T04:23:51;10.98;;;3.80;;
63046;SDS011;62025;39.238;9.126;2023-06-14T04:26:21;11.52;;;4.13;;
63046;SDS011;62025;39.238;9.126;2023-06-14T04:28:50;12.82;;;3.13;;
63046;SDS011;62025;39.238;9.126;2023-06-14T04:31:17;12.75;;;3.20;;
63046;SDS011;62025;39.238;9.126;2023-06-14T04:33:44;10.57;;;3.30;;
63046;SDS011;62025;39.238;9.126;2023-06-14T04:36:15;11.93;;;3.15;;
63046;SDS011;62025;39.238;9.126;2023-06-14T04:38:43;13.10;;;3.60;;
63046;SDS011;62025;39.238;9.126;2023-06-14T04:41:11;9.98;;;2.88;;
63046;SDS011;62025;39.238;9.126;2023-06-14T04:43:39;11.03;;;3.67;;
63046;SDS011;62025;39.238;9.126;2023-06-14T04:46:06;12.02;;;3.33;;
63046;SDS011;62025;39.238;9.126;2023-06-14T04:48:37;11.32;;;3.40;;
63046;SDS011;62025;39.238;9.126;2023-06-14T04:51:07;16.60;;;3.63;;
63046;SDS011;62025;39.238;9.126;2023-06-14T04:53:34;13.10;;;3.40;;
63046;SDS011;62025;39.238;9.126;2023-06-14T04:56:01;9.40;;;3.30;;
63046;SDS011;62025;39.238;9.126;2023-06-14T04:58:30;17.05;;;3.38;;
63046;SDS011;62025;39.238;9.126;2023-06-14T05:00:57;8.70;;;2.88;;
63046;SDS011;62025;39.238;9.126;2023-06-14T05:03:25;11.97;;;3.30;;
63046;SDS011;62025;39.238;9.126;2023-06-14T05:05:52;9.88;;;3.53;;
63046;SDS011;62025;39.238;9.126;2023-06-14T05:08:19;8.23;;;3.22;;
63046;SDS011;62025;39.238;9.126;2023-06-14T05:10:49;12.07;;;3.25;;
63046;SDS011;62025;39.238;9.126;2023-06-14T05:13:16;13.68;;;3.92;;
63046;SDS011;62025;39.238;9.126;2023-06-14T05:18:10;10.80;;;3.35;;
63046;SDS011;62025;39.238;9.126;2023-06-14T05:20:36;11.07;;;3.30;;
63046;SDS011;62025;39.238;9.126;2023-06-14T05:23:02;10.60;;;3.25;;
63046;SDS011;62025;39.238;9.126;2023-06-14T05:25:28;15.65;;;3.42;;
63046;SDS011;62025;39.238;9.126;2023-06-14T05:27:54;12.43;;;3.30;;
63046;SDS011;62025;39.238;9.126;2023-06-14T05:30:20;11.85;;;3.90;;
63046;SDS011;62025;39.238;9.126;2023-06-14T05:32:46;14.85;;;3.63;;
63046;SDS011;62025;39.238;9.126;2023-06-14T05:35:12;14.30;;;3.30;;
63046;SDS011;62025;39.238;9.126;2023-06-14T05:37:39;9.20;;;3.00;;
63046;SDS011;62025;39.238;9.126;2023-06-14T05:40:05;9.60;;;3.58;;
63046;SDS011;62025;39.238;9.126;2023-06-14T05:42:34;16.00;;;3.20;;
63046;SDS011;62025;39.238;9.126;2023-06-14T05:45:00;13.57;;;3.97;;
63046;SDS011;62025;39.238;9.126;2023-06-14T05:47:26;15.52;;;3.42;;
63046;SDS011;62025;39.238;9.126;2023-06-14T05:49:53;8.65;;;3.13;;
63046;SDS011;62025;39.238;9.126;2023-06-14T05:52:20;14.23;;;3.70;;
63046;SDS011;62025;39.238;9.126;2023-06-14T05:54:46;10.45;;;3.33;;
63046;SDS011;62025;39.238;9.126;2023-06-14T05:57:12;13.52;;;4.22;;
63046;SDS011;62025;39.238;9.126;2023-06-14T05:59:38;9.63;;;3.25;;
63046;SDS011;62025;39.238;9.126;2023-06-14T06:02:05;14.15;;;4.32;;
63046;SDS011;62025;39.238;9.126;2023-06-14T06:04:31;8.25;;;3.08;;
63046;SDS011;62025;39.238;9.126;2023-06-14T06:06:57;10.60;;;3.35;;
63046;SDS011;62025;39.238;9.126;2023-06-14T06:09:23;11.00;;;3.00;;
63046;SDS011;62025;39.238;9.126;2023-06-14T06:11:49;10.75;;;3.40;;
63046;SDS011;62025;39.238;9.126;2023-06-14T06:14:15;17.05;;;3.60;;
63046;SDS011;62025;39.238;9.126;2023-06-14T06:16:41;12.75;;;3.72;;
63046;SDS011;62025;39.238;9.126;2023-06-14T06:19:07;14.52;;;3.65;;
63046;SDS011;62025;39.238;9.126;2023-06-14T06:21:33;10.20;;;3.05;;
63046;SDS011;62025;39.238;9.126;2023-06-14T06:23:59;9.75;;;2.97;;
63046;SDS011;62025;39.238;9.126;2023-06-14T06:26:28;11.95;;;3.75;;
63046;SDS011;62025;39.238;9.126;2023-06-14T06:28:55;9.15;;;3.03;;
63046;SDS011;62025;39.238;9.126;2023-06-14T06:31:22;11.65;;;3.10;;
63046;SDS011;62025;39.238;9.126;2023-06-14T06:33:48;12.55;;;3.22;;
63046;SDS011;62025;39.238;9.126;2023-06-14T06:36:15;13.15;;;3.40;;
63046;SDS011;62025;39.238;9.126;2023-06-14T06:38:41;14.77;;;3.50;;
63046;SDS011;62025;39.238;9.126;2023-06-14T06:41:07;11.85;;;3.33;;
63046;SDS011;62025;39.238;9.126;2023-06-14T06:43:33;15.18;;;3.30;;
63046;SDS011;62025;39.238;9.126;2023-06-14T06:46:01;18.58;;;3.70;;
63046;SDS011;62025;39.238;9.126;2023-06-14T06:48:27;12.73;;;3.55;;
63046;SDS011;62025;39.238;9.126;2023-06-14T06:50:54;13.93;;;3.40;;
63046;SDS011;62025;39.238;9.126;2023-06-14T06:53:20;13.82;;;3.08;;
63046;SDS011;62025;39.238;9.126;2023-06-14T06:55:46;18.67;;;3.30;;
63046;SDS011;62025;39.238;9.126;2023-06-14T06:58:12;15.02;;;3.63;;
63046;SDS011;62025;39.238;9.126;2023-06-14T07:00:39;13.43;;;3.30;;
63046;SDS011;62025;39.238;9.126;2023-06-14T07:03:05;13.07;;;3.53;;
63046;SDS011;62025;39.238;9.126;2023-06-14T07:05:31;8.88;;;3.42;;
63046;SDS011;62025;39.238;9.126;2023-06-14T07:07:58;13.73;;;3.42;;
63046;SDS011;62025;39.238;9.126;2023-06-14T07:10:24;10.27;;;2.90;;
63046;SDS011;62025;39.238;9.126;2023-06-14T07:12:50;11.18;;;3.00;;
63046;SDS011;62025;39.238;9.126;2023-06-14T07:15:16;8.70;;;2.80;;
63046;SDS011;62025;39.238;9.126;2023-06-14T07:17:42;13.57;;;3.30;;
63046;SDS011;62025;39.238;9.126;2023-06-14T07:20:09;13.45;;;3.70;;
63046;SDS011;62025;39.238;9.126;2023-06-14T07:22:42;11.20;;;3.22;;
63046;SDS011;62025;39.238;9.126;2023-06-14T07:25:09;12.25;;;3.00;;
63046;SDS011;62025;39.238;9.126;2023-06-14T07:27:42;10.80;;;2.80;;
63046;SDS011;62025;39.238;9.126;2023-06-14T07:30:10;13.18;;;3.17;;
63046;SDS011;62025;39.238;9.126;2023-06-14T07:32:37;11.38;;;3.10;;
63046;SDS011;62025;39.238;9.126;2023-06-14T07:35:04;10.82;;;3.28;;
63046;SDS011;62025;39.238;9.126;2023-06-14T07:37:30;10.77;;;3.20;;
63046;SDS011;62025;39.238;9.126;2023-06-14T07:39:56;11.15;;;3.40;;
63046;SDS011;62025;39.238;9.126;2023-06-14T07:42:22;11.98;;;3.58;;
63046;SDS011;62025;39.238;9.126;2023-06-14T07:44:48;10.20;;;3.03;;
63046;SDS011;62025;39.238;9.126;2023-06-14T07:47:15;14.88;;;3.42;;
63046;SDS011;62025;39.238;9.126;2023-06-14T07:49:41;12.68;;;3.45;;
63046;SDS011;62025;39.238;9.126;2023-06-14T07:52:07;14.27;;;4.25;;
63046;SDS011;62025;39.238;9.126;2023-06-14T07:54:33;12.40;;;4.20;;
63046;SDS011;62025;39.238;9.126;2023-06-14T07:56:59;9.30;;;3.30;;
63046;SDS011;62025;39.238;9.126;2023-06-14T07:59:25;12.63;;;3.67;;
63046;SDS011;62025;39.238;9.126;2023-06-14T08:01:52;11.88;;;3.13;;
63046;SDS011;62025;39.238;9.126;2023-06-14T08:04:18;14.73;;;3.58;;
63046;SDS011;62025;39.238;9.126;2023-06-14T08:06:44;12.82;;;3.35;;
63046;SDS011;62025;39.238;9.126;2023-06-14T08:09:10;13.07;;;3.28;;
63046;SDS011;62025;39.238;9.126;2023-06-14T08:11:38;16.20;;;3.40;;
63046;SDS011;62025;39.238;9.126;2023-06-14T08:14:04;12.35;;;3.17;;
63046;SDS011;62025;39.238;9.126;2023-06-14T08:16:30;14.10;;;3.42;;
63046;SDS011;62025;39.238;9.126;2023-06-14T08:18:56;10.05;;;3.10;;
63046;SDS011;62025;39.238;9.126;2023-06-14T08:21:22;8.43;;;3.28;;
63046;SDS011;62025;39.238;9.126;2023-06-14T08:23:48;11.55;;;2.97;;
63046;SDS011;62025;39.238;9.126;2023-06-14T08:26:18;12.75;;;3.70;;
63046;SDS011;62025;39.238;9.126;2023-06-14T08:28:44;11.48;;;3.28;;
63046;SDS011;62025;39.238;9.126;2023-06-14T08:31:10;13.10;;;4.07;;
63046;SDS011;62025;39.238;9.126;2023-06-14T08:33:36;9.55;;;3.00;;
63046;SDS011;62025;39.238;9.126;2023-06-14T08:36:02;13.13;;;3.53;;
63046;SDS011;62025;39.238;9.126;2023-06-14T08:38:28;10.90;;;2.90;;
63046;SDS011;62025;39.238;9.126;2023-06-14T08:40:56;9.82;;;2.95;;
63046;SDS011;62025;39.238;9.126;2023-06-14T08:43:23;11.60;;;3.50;;
63046;SDS011;62025;39.238;9.126;2023-06-14T08:45:50;9.68;;;3.25;;
63046;SDS011;62025;39.238;9.126;2023-06-14T08:48:25;10.88;;;3.67;;
63046;SDS011;62025;39.238;9.126;2023-06-14T08:50:53;10.00;;;3.80;;
63046;SDS011;62025;39.238;9.126;2023-06-14T08:53:27;11.68;;;3.90;;
63046;SDS011;62025;39.238;9.126;2023-06-14T08:55:57;10.02;;;3.60;;
63046;SDS011;62025;39.238;9.126;2023-06-14T08:58:32;10.93;;;3.22;;
63046;SDS011;62025;39.238;9.126;2023-06-14T09:01:00;12.63;;;3.50;;
63046;SDS011;62025;39.238;9.126;2023-06-14T09:03:27;11.05;;;3.35;;
63046;SDS011;62025;39.238;9.126;2023-06-14T09:05:57;10.15;;;3.42;;
63046;SDS011;62025;39.238;9.126;2023-06-14T09:08:27;12.10;;;3.38;;
63046;SDS011;62025;39.238;9.126;2023-06-14T09:10:56;12.98;;;3.75;;
63046;SDS011;62025;39.238;9.126;2023-06-14T09:13:23;7.90;;;3.88;;
63046;SDS011;62025;39.238;9.126;2023-06-14T09:15:49;12.27;;;3.75;;
63046;SDS011;62025;39.238;9.126;2023-06-14T09:18:16;9.82;;;3.70;;
63046;SDS011;62025;39.238;9.126;2023-06-14T09:20:42;8.35;;;3.45;;
63046;SDS011;62025;39.238;9.126;2023-06-14T09:23:09;6.68;;;2.95;;
63046;SDS011;62025;39.238;9.126;2023-06-14T09:25:45;8.00;;;3.47;;
63046;SDS011;62025;39.238;9.126;2023-06-14T09:28:11;12.65;;;4.80;;
63046;SDS011;62025;39.238;9.126;2023-06-14T09:30:37;10.52;;;3.88;;
63046;SDS011;62025;39.238;9.126;2023-06-14T09:33:04;9.07;;;3.55;;
63046;SDS011;62025;39.238;9.126;2023-06-14T09:35:33;6.20;;;3.40;;
63046;SDS011;62025;39.238;9.126;2023-06-14T09:37:59;9.50;;;3.63;;
63046;SDS011;62025;39.238;9.126;2023-06-14T09:40:26;12.20;;;3.88;;
63046;SDS011;62025;39.238;9.126;2023-06-14T09:42:52;8.80;;;3.50;;
63046;SDS011;62025;39.238;9.126;2023-06-14T09:45:20;13.32;;;3.80;;
63046;SDS011;62025;39.238;9.126;2023-06-14T09:47:48;8.80;;;3.80;;
63046;SDS011;62025;39.238;9.126;2023-06-14T09:50:15;8.43;;;3.63;;
63046;SDS011;62025;39.238;9.126;2023-06-14T09:52:42;9.95;;;3.38;;
63046;SDS011;62025;39.238;9.126;2023-06-14T09:55:13;7.53;;;3.15;;
63046;SDS011;62025;39.238;9.126;2023-06-14T09:57:43;9.75;;;3.78;;
63046;SDS011;62025;39.238;9.126;2023-06-14T10:00:13;8.93;;;3.78;;
63046;SDS011;62025;39.238;9.126;2023-06-14T10:02:40;8.55;;;4.05;;
63046;SDS011;62025;39.238;9.126;2023-06-14T10:05:13;7.63;;;3.88;;
63046;SDS011;62025;39.238;9.126;2023-06-14T10:10:13;12.32;;;3.85;;
63046;SDS011;62025;39.238;9.126;2023-06-14T10:12:40;7.82;;;3.35;;
63046;SDS011;62025;39.238;9.126;2023-06-14T10:15:07;11.35;;;3.85;;
63046;SDS011;62025;39.238;9.126;2023-06-14T10:17:46;10.10;;;3.67;;
63046;SDS011;62025;39.238;9.126;2023-06-14T10:23:17;10.18;;;3.75;;
63046;SDS011;62025;39.238;9.126;2023-06-14T10:25:49;10.95;;;4.35;;
63046;SDS011;62025;39.238;9.126;2023-06-14T10:39:17;11.38;;;3.80;;
63046;SDS011;62025;39.238;9.126;2023-06-14T10:41:53;9.52;;;3.92;;
63046;SDS011;62025;39.238;9.126;2023-06-14T10:49:20;9.77;;;3.42;;
63046;SDS011;62025;39.238;9.126;2023-06-14T10:52:10;16.02;;;3.85;;
63046;SDS011;62025;39.238;9.126;2023-06-14T10:54:58;14.60;;;4.20;;
63046;SDS011;62025;39.238;9.126;2023-06-14T10:57:26;14.65;;;4.20;;
63046;SDS011;62025;39.238;9.126;2023-06-14T10:59:52;8.93;;;3.63;;
63046;SDS011;62025;39.238;9.126;2023-06-14T11:02:35;7.65;;;2.80;;
63046;SDS011;62025;39.238;9.126;2023-06-14T11:05:30;8.75;;;3.17;;
63046;SDS011;62025;39.238;9.126;2023-06-14T11:09:04;12.10;;;3.30;;
63046;SDS011;62025;39.238;9.126;2023-06-14T11:11:14;9.50;;;2.75;;
63046;SDS011;62025;39.238;9.126;2023-06-14T11:13:43;7.55;;;2.42;;
63046;SDS011;62025;39.238;9.126;2023-06-14T11:16:17;6.38;;;2.50;;
63046;SDS011;62025;39.238;9.126;2023-06-14T11:18:46;4.25;;;2.20;;
63046;SDS011;62025;39.238;9.126;2023-06-14T11:21:17;7.72;;;2.22;;
63046;SDS011;62025;39.238;9.126;2023-06-14T11:23:50;10.10;;;2.30;;
63046;SDS011;62025;39.238;9.126;2023-06-14T11:26:24;4.45;;;1.85;;
63046;SDS011;62025;39.238;9.126;2023-06-14T11:28:55;6.85;;;2.20;;
63046;SDS011;62025;39.238;9.126;2023-06-14T11:31:23;5.40;;;2.17;;
63046;SDS011;62025;39.238;9.126;2023-06-14T11:33:50;4.40;;;1.90;;
63046;SDS011;62025;39.238;9.126;2023-06-14T11:36:16;4.13;;;1.77;;
63046;SDS011;62025;39.238;9.126;2023-06-14T11:38:42;7.07;;;2.13;;
63046;SDS011;62025;39.238;9.126;2023-06-14T11:41:09;6.95;;;2.28;;
63046;SDS011;62025;39.238;9.126;2023-06-14T11:43:35;6.60;;;2.08;;
63046;SDS011;62025;39.238;9.126;2023-06-14T11:46:01;8.30;;;2.20;;
63046;SDS011;62025;39.238;9.126;2023-06-14T11:48:42;4.45;;;2.20;;
63046;SDS011;62025;39.238;9.126;2023-06-14T11:51:09;5.10;;;2.17;;
63046;SDS011;62025;39.238;9.126;2023-06-14T11:53:36;6.73;;;1.80;;
63046;SDS011;62025;39.238;9.126;2023-06-14T11:56:02;3.28;;;2.13;;
63046;SDS011;62025;39.238;9.126;2023-06-14T11:58:29;3.25;;;1.92;;
63046;SDS011;62025;39.238;9.126;2023-06-14T12:00:55;4.63;;;1.73;;
63046;SDS011;62025;39.238;9.126;2023-06-14T12:03:25;2.90;;;1.70;;
63046;SDS011;62025;39.238;9.126;2023-06-14T12:06:04;5.57;;;1.88;;
63046;SDS011;62025;39.238;9.126;2023-06-14T12:08:37;3.05;;;1.80;;
63046;SDS011;62025;39.238;9.126;2023-06-14T12:11:14;4.10;;;2.30;;
63046;SDS011;62025;39.238;9.126;2023-06-14T12:13:43;3.20;;;1.90;;
63046;SDS011;62025;39.238;9.126;2023-06-14T12:16:11;2.67;;;1.70;;
63046;SDS011;62025;39.238;9.126;2023-06-14T12:18:37;4.32;;;2.10;;
63046;SDS011;62025;39.238;9.126;2023-06-14T12:21:06;3.15;;;1.70;;
63046;SDS011;62025;39.238;9.126;2023-06-14T12:23:43;2.60;;;1.98;;
63046;SDS011;62025;39.238;9.126;2023-06-14T12:26:17;2.40;;;1.63;;
63046;SDS011;62025;39.238;9.126;2023-06-14T12:28:45;2.75;;;1.75;;
63046;SDS011;62025;39.238;9.126;2023-06-14T12:31:13;3.90;;;1.80;;
63046;SDS011;62025;39.238;9.126;2023-06-14T12:33:41;3.58;;;1.60;;
63046;SDS011;62025;39.238;9.126;2023-06-14T12:36:08;1.60;;;1.50;;
63046;SDS011;62025;39.238;9.126;2023-06-14T12:38:35;4.70;;;1.90;;
63046;SDS011;62025;39.238;9.126;2023-06-14T12:41:02;3.22;;;1.70;;
63046;SDS011;62025;39.238;9.126;2023-06-14T12:43:29;4.47;;;1.90;;
63046;SDS011;62025;39.238;9.126;2023-06-14T12:45:55;2.55;;;1.80;;
63046;SDS011;62025;39.238;9.126;2023-06-14T12:48:21;3.28;;;2.13;;
63046;SDS011;62025;39.238;9.126;2023-06-14T12:50:47;2.72;;;1.90;;
63046;SDS011;62025;39.238;9.126;2023-06-14T12:53:13;3.35;;;1.80;;
63046;SDS011;62025;39.238;9.126;2023-06-14T12:55:40;2.13;;;1.65;;
63046;SDS011;62025;39.238;9.126;2023-06-14T12:58:06;3.33;;;1.70;;
63046;SDS011;62025;39.238;9.126;2023-06-14T13:00:32;3.33;;;1.60;;
63046;SDS011;62025;39.238;9.126;2023-06-14T13:02:58;3.35;;;1.88;;
63046;SDS011;62025;39.238;9.126;2023-06-14T13:05:24;1.95;;;1.60;;
63046;SDS011;62025;39.238;9.126;2023-06-14T13:07:50;4.82;;;1.85;;
63046;SDS011;62025;39.238;9.126;2023-06-14T13:10:16;2.70;;;1.85;;
63046;SDS011;62025;39.238;9.126;2023-06-14T13:12:42;2.80;;;1.60;;
63046;SDS011;62025;39.238;9.126;2023-06-14T13:15:09;2.85;;;2.00;;
63046;SDS011;62025;39.238;9.126;2023-06-14T13:17:35;2.95;;;1.52;;
63046;SDS011;62025;39.238;9.126;2023-06-14T13:20:08;4.50;;;1.63;;
63046;SDS011;62025;39.238;9.126;2023-06-14T13:22:34;3.80;;;1.70;;
63046;SDS011;62025;39.238;9.126;2023-06-14T13:25:01;4.30;;;1.80;;
63046;SDS011;62025;39.238;9.126;2023-06-14T13:27:28;2.50;;;1.80;;
63046;SDS011;62025;39.238;9.126;2023-06-14T13:29:54;3.80;;;1.95;;
63046;SDS011;62025;39.238;9.126;2023-06-14T13:32:20;2.10;;;1.85;;
63046;SDS011;62025;39.238;9.126;2023-06-14T13:34:47;3.90;;;2.08;;
63046;SDS011;62025;39.238;9.126;2023-06-14T13:37:14;2.78;;;1.73;;
63046;SDS011;62025;39.238;9.126;2023-06-14T13:39:40;2.13;;;1.75;;
63046;SDS011;62025;39.238;9.126;2023-06-14T13:42:06;5.55;;;2.40;;
63046;SDS011;62025;39.238;9.126;2023-06-14T13:44:32;3.58;;;1.98;;
63046;SDS011;62025;39.238;9.126;2023-06-14T13:46:58;3.22;;;1.70;;
63046;SDS011;62025;39.238;9.126;2023-06-14T13:49:25;3.40;;;1.70;;
63046;SDS011;62025;39.238;9.126;2023-06-14T13:51:51;2.83;;;2.10;;
63046;SDS011;62025;39.238;9.126;2023-06-14T13:54:19;4.00;;;1.85;;
63046;SDS011;62025;39.238;9.126;2023-06-14T13:56:46;4.63;;;1.70;;
63046;SDS011;62025;39.238;9.126;2023-06-14T13:59:12;2.42;;;1.77;;
63046;SDS011;62025;39.238;9.126;2023-06-14T14:01:38;2.08;;;1.65;;
63046;SDS011;62025;39.238;9.126;2023-06-14T14:04:05;2.40;;;1.88;;
63046;SDS011;62025;39.238;9.126;2023-06-14T14:06:31;5.30;;;2.08;;
63046;SDS011;62025;39.238;9.126;2023-06-14T14:08:57;5.07;;;2.30;;
63046;SDS011;62025;39.238;9.126;2023-06-14T14:11:23;2.83;;;1.83;;
63046;SDS011;62025;39.238;9.126;2023-06-14T14:13:49;2.72;;;2.10;;
63046;SDS011;62025;39.238;9.126;2023-06-14T14:16:15;3.20;;;2.05;;
63046;SDS011;62025;39.238;9.126;2023-06-14T14:18:41;2.30;;;1.80;;
63046;SDS011;62025;39.238;9.126;2023-06-14T14:21:07;4.72;;;1.83;;
63046;SDS011;62025;39.238;9.126;2023-06-14T14:23:34;3.63;;;2.10;;
63046;SDS011;62025;39.238;9.126;2023-06-14T14:26:00;7.18;;;2.47;;
63046;SDS011;62025;39.238;9.126;2023-06-14T14:28:29;4.28;;;2.28;;
63046;SDS011;62025;39.238;9.126;2023-06-14T14:30:56;3.30;;;1.70;;
63046;SDS011;62025;39.238;9.126;2023-06-14T14:33:22;4.38;;;2.05;;
63046;SDS011;62025;39.238;9.126;2023-06-14T14:35:48;2.58;;;1.70;;
63046;SDS011;62025;39.238;9.126;2023-06-14T14:38:14;3.28;;;2.03;;
63046;SDS011;62025;39.238;9.126;2023-06-14T14:40:41;1.85;;;1.73;;
63046;SDS011;62025;39.238;9.126;2023-06-14T14:43:09;2.60;;;1.73;;
63046;SDS011;62025;39.238;9.126;2023-06-14T14:45:35;4.35;;;2.08;;
63046;SDS011;62025;39.238;9.126;2023-06-14T14:48:02;2.63;;;2.05;;
63046;SDS011;62025;39.238;9.126;2023-06-14T14:50:28;2.35;;;1.80;;
63046;SDS011;62025;39.238;9.126;2023-06-14T14:52:55;2.10;;;1.85;;
63046;SDS011;62025;39.238;9.126;2023-06-14T14:55:21;2.63;;;1.80;;
63046;SDS011;62025;39.238;9.126;2023-06-14T14:57:47;3.00;;;2.00;;
63046;SDS011;62025;39.238;9.126;2023-06-14T15:00:13;3.40;;;1.95;;
63046;SDS011;62025;39.238;9.126;2023-06-14T15:02:40;2.40;;;2.00;;
63046;SDS011;62025;39.238;9.126;2023-06-14T15:05:06;3.10;;;2.00;;
63046;SDS011;62025;39.238;9.126;2023-06-14T15:07:32;2.40;;;1.70;;
63046;SDS011;62025;39.238;9.126;2023-06-14T15:09:59;4.70;;;2.30;;
63046;SDS011;62025;39.238;9.126;2023-06-14T15:12:25;3.00;;;1.92;;
63046;SDS011;62025;39.238;9.126;2023-06-14T15:14:52;4.10;;;2.15;;
63046;SDS011;62025;39.238;9.126;2023-06-14T15:17:18;3.28;;;2.03;;